sensor_id;sensor_type;location;lat;lon;timestamp;temperature;humidity
25628;DHT22;40915;50.826;4.356;2023-12-14T00:01:45;9.10;99.90
25628;DHT22;40915;50.826;4.356;2023-12-14T00:04:11;9.00;99.90
25628;DHT22;40915;50.826;4.356;2023-12-14T00:06:37;9.10;99.90
25628;DHT22;40915;50.826;4.356;2023-12-14T00:09:03;9.10;99.90
25628;DHT22;40915;50.826;4.356;2023-12-14T00:11:29;9.10;99.90
25628;DHT22;40915;50.826;4.356;2023-12-14T00:13:55;9.00;99.90
25628;DHT22;40915;50.826;4.356;2023-12-14T00:16:21;9.00;99.90
25628;DHT22;40915;50.826;4.356;2023-12-14T00:18:46;9.00;99.90
25628;DHT22;40915;50.826;4.356;2023-12-14T00:21:12;9.00;99.90
25628;DHT22;40915;50.826;4.356;2023-12-14T00:23:38;9.10;99.90
25628;DHT22;40915;50.826;4.356;2023-12-14T00:26:04;9.00;99.90
25628;DHT22;40915;50.826;4.356;2023-12-14T00:28:29;9.00;99.90
25628;DHT22;40915;50.826;4.356;2023-12-14T00:30:55;9.00;99.90
25628;DHT22;40915;50.826;4.356;2023-12-14T00:33:21;9.00;99.90
25628;DHT22;40915;50.826;4.356;2023-12-14T00:35:46;9.00;99.90
25628;DHT22;40915;50.826;4.356;2023-12-14T00:38:12;9.10;99.90
25628;DHT22;40915;50.826;4.356;2023-12-14T00:40:37;9.10;99.90
25628;DHT22;40915;50.826;4.356;2023-12-14T00:43:03;9.10;99.90
25628;DHT22;40915;50.826;4.356;2023-12-14T00:45:28;9.10;99.90
25628;DHT22;40915;50.826;4.356;2023-12-14T00:47:54;9.10;99.90
25628;DHT22;40915;50.826;4.356;2023-12-14T00:50:20;9.10;99.90
25628;DHT22;40915;50.826;4.356;2023-12-14T00:52:45;9.10;99.90
25628;DHT22;40915;50.826;4.356;2023-12-14T00:55:11;9.10;99.90
25628;DHT22;40915;50.826;4.356;2023-12-14T00:57:37;9.10;99.90
25628;DHT22;40915;50.826;4.356;2023-12-14T01:00:02;9.10;99.90
25628;DHT22;40915;50.826;4.356;2023-12-14T01:02:29;9.10;99.90
25628;DHT22;40915;50.826;4.356;2023-12-14T01:04:54;9.10;99.90
25628;DHT22;40915;50.826;4.356;2023-12-14T01:07:20;9.10;99.90
25628;DHT22;40915;50.826;4.356;2023-12-14T01:09:46;9.10;99.90
25628;DHT22;40915;50.826;4.356;2023-12-14T01:12:11;9.10;99.90
25628;DHT22;40915;50.826;4.356;2023-12-14T01:14:37;9.10;99.90
25628;DHT22;40915;50.826;4.356;2023-12-14T01:17:03;9.10;99.90
25628;DHT22;40915;50.826;4.356;2023-12-14T01:19:28;9.10;99.90
25628;DHT22;40915;50.826;4.356;2023-12-14T01:21:54;9.10;99.90
25628;DHT22;40915;50.826;4.356;2023-12-14T01:24:20;9.10;99.90
25628;DHT22;40915;50.826;4.356;2023-12-14T01:26:46;9.10;99.90
25628;DHT22;40915;50.826;4.356;2023-12-14T01:29:12;9.00;99.90
25628;DHT22;40915;50.826;4.356;2023-12-14T01:31:37;9.00;99.90
25628;DHT22;40915;50.826;4.356;2023-12-14T01:34:03;9.00;99.90
25628;DHT22;40915;50.826;4.356;2023-12-14T01:36:29;9.00;99.90
25628;DHT22;40915;50.826;4.356;2023-12-14T01:38:55;9.00;99.90
25628;DHT22;40915;50.826;4.356;2023-12-14T01:41:20;9.00;99.90
25628;DHT22;40915;50.826;4.356;2023-12-14T01:43:46;9.00;99.90
25628;DHT22;40915;50.826;4.356;2023-12-14T01:46:12;9.00;99.90
25628;DHT22;40915;50.826;4.356;2023-12-14T01:48:39;9.00;99.90
25628;DHT22;40915;50.826;4.356;2023-12-14T01:51:05;9.00;99.90
25628;DHT22;40915;50.826;4.356;2023-12-14T01:53:30;9.00;99.90
25628;DHT22;40915;50.826;4.356;2023-12-14T01:55:56;9.00;99.90
25628;DHT22;40915;50.826;4.356;2023-12-14T01:58:21;9.00;99.90
25628;DHT22;40915;50.826;4.356;2023-12-14T02:03:35;9.00;99.90
25628;DHT22;40915;50.826;4.356;2023-12-14T02:06:01;9.00;99.90
25628;DHT22;40915;50.826;4.356;2023-12-14T02:08:27;9.00;99.90
25628;DHT22;40915;50.826;4.356;2023-12-14T02:10:54;9.00;99.90
25628;DHT22;40915;50.826;4.356;2023-12-14T02:13:20;8.90;99.90
25628;DHT22;40915;50.826;4.356;2023-12-14T02:15:45;8.90;99.90
25628;DHT22;40915;50.826;4.356;2023-12-14T02:18:12;8.90;99.90
25628;DHT22;40915;50.826;4.356;2023-12-14T02:20:38;8.90;99.90
25628;DHT22;40915;50.826;4.356;2023-12-14T02:23:03;8.90;99.90
25628;DHT22;40915;50.826;4.356;2023-12-14T02:25:29;8.90;99.90
25628;DHT22;40915;50.826;4.356;2023-12-14T02:27:54;8.90;99.90
25628;DHT22;40915;50.826;4.356;2023-12-14T02:30:20;8.90;99.90
25628;DHT22;40915;50.826;4.356;2023-12-14T02:32:46;8.90;99.90
25628;DHT22;40915;50.826;4.356;2023-12-14T02:35:11;8.90;99.90
25628;DHT22;40915;50.826;4.356;2023-12-14T02:37:37;8.90;99.90
25628;DHT22;40915;50.826;4.356;2023-12-14T02:40:04;8.90;99.90
25628;DHT22;40915;50.826;4.356;2023-12-14T02:42:30;8.80;99.90
25628;DHT22;40915;50.826;4.356;2023-12-14T02:44:56;8.80;99.90
25628;DHT22;40915;50.826;4.356;2023-12-14T02:47:22;8.80;99.90
25628;DHT22;40915;50.826;4.356;2023-12-14T02:49:48;8.70;99.90
25628;DHT22;40915;50.826;4.356;2023-12-14T02:52:13;8.70;99.90
25628;DHT22;40915;50.826;4.356;2023-12-14T02:54:39;8.60;99.90
25628;DHT22;40915;50.826;4.356;2023-12-14T02:57:06;8.60;99.90
25628;DHT22;40915;50.826;4.356;2023-12-14T02:59:31;8.60;99.90
25628;DHT22;40915;50.826;4.356;2023-12-14T03:01:57;8.50;99.90
25628;DHT22;40915;50.826;4.356;2023-12-14T03:04:23;8.50;99.90
25628;DHT22;40915;50.826;4.356;2023-12-14T03:06:49;8.50;99.90
25628;DHT22;40915;50.826;4.356;2023-12-14T03:09:14;8.50;99.90
25628;DHT22;40915;50.826;4.356;2023-12-14T03:11:40;8.50;99.90
25628;DHT22;40915;50.826;4.356;2023-12-14T03:14:05;8.40;99.90
25628;DHT22;40915;50.826;4.356;2023-12-14T03:16:31;8.40;99.90
25628;DHT22;40915;50.826;4.356;2023-12-14T03:18:57;8.40;99.90
25628;DHT22;40915;50.826;4.356;2023-12-14T03:21:23;8.30;99.90
25628;DHT22;40915;50.826;4.356;2023-12-14T03:23:49;8.30;99.90
25628;DHT22;40915;50.826;4.356;2023-12-14T03:26:16;8.30;99.90
25628;DHT22;40915;50.826;4.356;2023-12-14T03:28:41;8.30;99.90
25628;DHT22;40915;50.826;4.356;2023-12-14T03:31:08;8.30;99.90
25628;DHT22;40915;50.826;4.356;2023-12-14T03:33:35;8.30;99.90
25628;DHT22;40915;50.826;4.356;2023-12-14T03:36:02;8.20;99.90
25628;DHT22;40915;50.826;4.356;2023-12-14T03:38:27;8.20;99.90
25628;DHT22;40915;50.826;4.356;2023-12-14T03:40:53;8.20;99.90
25628;DHT22;40915;50.826;4.356;2023-12-14T03:43:19;8.10;99.90
25628;DHT22;40915;50.826;4.356;2023-12-14T03:45:45;7.90;99.90
25628;DHT22;40915;50.826;4.356;2023-12-14T03:48:11;7.90;99.90
25628;DHT22;40915;50.826;4.356;2023-12-14T03:50:36;7.80;99.90
25628;DHT22;40915;50.826;4.356;2023-12-14T03:53:02;7.70;99.90
25628;DHT22;40915;50.826;4.356;2023-12-14T03:55:27;7.70;99.90
25628;DHT22;40915;50.826;4.356;2023-12-14T03:57:53;7.60;99.90
25628;DHT22;40915;50.826;4.356;2023-12-14T04:00:19;7.60;99.90
25628;DHT22;40915;50.826;4.356;2023-12-14T04:02:44;7.50;99.90
25628;DHT22;40915;50.826;4.356;2023-12-14T04:05:10;7.50;99.90
25628;DHT22;40915;50.826;4.356;2023-12-14T04:07:37;7.50;99.90
25628;DHT22;40915;50.826;4.356;2023-12-14T04:10:06;7.50;99.90
25628;DHT22;40915;50.826;4.356;2023-12-14T04:12:32;7.50;99.90
25628;DHT22;40915;50.826;4.356;2023-12-14T04:14:57;7.40;99.90
25628;DHT22;40915;50.826;4.356;2023-12-14T04:17:23;7.50;99.90
25628;DHT22;40915;50.826;4.356;2023-12-14T04:19:49;7.40;99.90
25628;DHT22;40915;50.826;4.356;2023-12-14T04:22:15;7.40;99.90
25628;DHT22;40915;50.826;4.356;2023-12-14T04:24:41;7.40;99.90
25628;DHT22;40915;50.826;4.356;2023-12-14T04:27:06;7.40;99.90
25628;DHT22;40915;50.826;4.356;2023-12-14T04:29:32;7.40;99.90
25628;DHT22;40915;50.826;4.356;2023-12-14T04:31:57;7.30;99.90
25628;DHT22;40915;50.826;4.356;2023-12-14T04:34:23;7.30;99.90
25628;DHT22;40915;50.826;4.356;2023-12-14T04:36:50;7.30;99.90
25628;DHT22;40915;50.826;4.356;2023-12-14T04:39:15;7.30;99.90
25628;DHT22;40915;50.826;4.356;2023-12-14T04:41:42;7.30;99.90
25628;DHT22;40915;50.826;4.356;2023-12-14T04:44:08;7.30;99.90
25628;DHT22;40915;50.826;4.356;2023-12-14T04:46:35;7.20;99.90
25628;DHT22;40915;50.826;4.356;2023-12-14T04:49:01;7.20;99.90
25628;DHT22;40915;50.826;4.356;2023-12-14T04:51:27;7.30;99.90
25628;DHT22;40915;50.826;4.356;2023-12-14T04:53:53;7.30;99.90
25628;DHT22;40915;50.826;4.356;2023-12-14T04:56:18;7.30;99.90
25628;DHT22;40915;50.826;4.356;2023-12-14T04:58:44;7.20;99.90
25628;DHT22;40915;50.826;4.356;2023-12-14T05:01:09;7.20;99.90
25628;DHT22;40915;50.826;4.356;2023-12-14T05:03:35;7.20;99.90
25628;DHT22;40915;50.826;4.356;2023-12-14T05:06:01;7.20;99.90
25628;DHT22;40915;50.826;4.356;2023-12-14T05:08:27;7.10;99.90
25628;DHT22;40915;50.826;4.356;2023-12-14T05:10:52;7.10;99.90
25628;DHT22;40915;50.826;4.356;2023-12-14T05:13:18;7.10;99.90
25628;DHT22;40915;50.826;4.356;2023-12-14T05:15:44;7.10;99.90
25628;DHT22;40915;50.826;4.356;2023-12-14T05:18:09;7.10;99.90
25628;DHT22;40915;50.826;4.356;2023-12-14T05:20:35;7.10;99.90
25628;DHT22;40915;50.826;4.356;2023-12-14T05:23:01;7.10;99.90
25628;DHT22;40915;50.826;4.356;2023-12-14T05:25:27;7.10;99.90
25628;DHT22;40915;50.826;4.356;2023-12-14T05:27:53;7.20;99.90
25628;DHT22;40915;50.826;4.356;2023-12-14T05:30:18;7.10;99.90
25628;DHT22;40915;50.826;4.356;2023-12-14T05:32:44;7.00;99.90
25628;DHT22;40915;50.826;4.356;2023-12-14T05:35:10;7.00;99.90
25628;DHT22;40915;50.826;4.356;2023-12-14T05:37:39;7.00;99.90
25628;DHT22;40915;50.826;4.356;2023-12-14T05:40:05;7.00;99.90
25628;DHT22;40915;50.826;4.356;2023-12-14T05:42:30;7.00;99.90
25628;DHT22;40915;50.826;4.356;2023-12-14T05:44:56;7.00;99.90
25628;DHT22;40915;50.826;4.356;2023-12-14T05:47:22;7.00;99.90
25628;DHT22;40915;50.826;4.356;2023-12-14T05:49:47;7.10;99.90
25628;DHT22;40915;50.826;4.356;2023-12-14T05:52:13;7.00;99.90
25628;DHT22;40915;50.826;4.356;2023-12-14T05:54:39;7.10;99.90
25628;DHT22;40915;50.826;4.356;2023-12-14T05:57:05;7.10;99.90
25628;DHT22;40915;50.826;4.356;2023-12-14T05:59:31;7.00;99.90
25628;DHT22;40915;50.826;4.356;2023-12-14T06:02:00;7.10;99.90
25628;DHT22;40915;50.826;4.356;2023-12-14T06:04:27;7.00;99.90
25628;DHT22;40915;50.826;4.356;2023-12-14T06:06:53;7.00;99.90
25628;DHT22;40915;50.826;4.356;2023-12-14T06:09:19;7.00;99.90
25628;DHT22;40915;50.826;4.356;2023-12-14T06:11:50;7.00;99.90
25628;DHT22;40915;50.826;4.356;2023-12-14T06:14:17;7.00;99.90
25628;DHT22;40915;50.826;4.356;2023-12-14T06:16:42;7.00;99.90
25628;DHT22;40915;50.826;4.356;2023-12-14T06:19:08;7.00;99.90
25628;DHT22;40915;50.826;4.356;2023-12-14T06:21:33;7.00;99.90
25628;DHT22;40915;50.826;4.356;2023-12-14T06:23:59;7.00;99.90
25628;DHT22;40915;50.826;4.356;2023-12-14T06:26:25;7.10;99.90
25628;DHT22;40915;50.826;4.356;2023-12-14T06:28:51;7.10;99.90
25628;DHT22;40915;50.826;4.356;2023-12-14T06:31:18;7.00;99.90
25628;DHT22;40915;50.826;4.356;2023-12-14T06:33:47;7.10;99.90
25628;DHT22;40915;50.826;4.356;2023-12-14T06:36:17;7.00;99.90
25628;DHT22;40915;50.826;4.356;2023-12-14T06:38:43;7.00;99.90
25628;DHT22;40915;50.826;4.356;2023-12-14T06:41:18;7.00;99.90
25628;DHT22;40915;50.826;4.356;2023-12-14T06:43:44;7.00;99.90
25628;DHT22;40915;50.826;4.356;2023-12-14T06:46:09;7.10;99.90
25628;DHT22;40915;50.826;4.356;2023-12-14T06:48:35;7.10;99.90
25628;DHT22;40915;50.826;4.356;2023-12-14T06:51:01;7.10;99.90
25628;DHT22;40915;50.826;4.356;2023-12-14T06:53:26;7.10;99.90
25628;DHT22;40915;50.826;4.356;2023-12-14T06:55:52;7.10;99.90
25628;DHT22;40915;50.826;4.356;2023-12-14T06:58:18;7.10;99.90
25628;DHT22;40915;50.826;4.356;2023-12-14T07:00:43;7.00;99.90
25628;DHT22;40915;50.826;4.356;2023-12-14T07:03:09;7.00;99.90
25628;DHT22;40915;50.826;4.356;2023-12-14T07:05:34;7.00;99.90
25628;DHT22;40915;50.826;4.356;2023-12-14T07:08:00;7.00;99.90
25628;DHT22;40915;50.826;4.356;2023-12-14T07:10:26;7.00;99.90
25628;DHT22;40915;50.826;4.356;2023-12-14T07:12:52;7.00;99.90
25628;DHT22;40915;50.826;4.356;2023-12-14T07:15:18;6.90;99.90
25628;DHT22;40915;50.826;4.356;2023-12-14T07:17:44;6.90;99.90
25628;DHT22;40915;50.826;4.356;2023-12-14T07:20:10;6.80;99.90
25628;DHT22;40915;50.826;4.356;2023-12-14T07:22:36;6.80;99.90
25628;DHT22;40915;50.826;4.356;2023-12-14T07:25:03;6.80;99.90
25628;DHT22;40915;50.826;4.356;2023-12-14T07:27:29;6.70;99.90
25628;DHT22;40915;50.826;4.356;2023-12-14T07:29:54;6.70;99.90
25628;DHT22;40915;50.826;4.356;2023-12-14T07:32:20;6.70;99.90
25628;DHT22;40915;50.826;4.356;2023-12-14T07:34:46;6.70;99.90
25628;DHT22;40915;50.826;4.356;2023-12-14T07:37:12;6.70;99.90
25628;DHT22;40915;50.826;4.356;2023-12-14T07:39:38;6.70;99.90
25628;DHT22;40915;50.826;4.356;2023-12-14T07:42:04;6.80;99.90
25628;DHT22;40915;50.826;4.356;2023-12-14T07:44:31;6.70;99.90
25628;DHT22;40915;50.826;4.356;2023-12-14T07:46:59;6.80;99.90
25628;DHT22;40915;50.826;4.356;2023-12-14T07:49:25;6.80;99.90
25628;DHT22;40915;50.826;4.356;2023-12-14T07:51:50;6.90;99.90
25628;DHT22;40915;50.826;4.356;2023-12-14T07:54:17;6.90;99.90
25628;DHT22;40915;50.826;4.356;2023-12-14T07:56:43;7.00;99.90
25628;DHT22;40915;50.826;4.356;2023-12-14T07:59:09;7.00;99.90
25628;DHT22;40915;50.826;4.356;2023-12-14T08:01:35;7.10;99.90
25628;DHT22;40915;50.826;4.356;2023-12-14T08:04:01;7.10;99.90
25628;DHT22;40915;50.826;4.356;2023-12-14T08:06:27;7.10;99.90
25628;DHT22;40915;50.826;4.356;2023-12-14T08:08:53;7.20;99.90
25628;DHT22;40915;50.826;4.356;2023-12-14T08:11:18;7.20;99.90
25628;DHT22;40915;50.826;4.356;2023-12-14T08:13:44;7.20;99.90
25628;DHT22;40915;50.826;4.356;2023-12-14T08:16:10;7.30;99.90
25628;DHT22;40915;50.826;4.356;2023-12-14T08:18:39;7.30;99.90
25628;DHT22;40915;50.826;4.356;2023-12-14T08:21:06;7.20;99.90
25628;DHT22;40915;50.826;4.356;2023-12-14T08:23:31;7.20;99.90
25628;DHT22;40915;50.826;4.356;2023-12-14T08:25:57;7.30;99.90
25628;DHT22;40915;50.826;4.356;2023-12-14T08:28:24;7.30;99.90
25628;DHT22;40915;50.826;4.356;2023-12-14T08:30:50;7.30;99.90
25628;DHT22;40915;50.826;4.356;2023-12-14T08:33:16;7.30;99.90
25628;DHT22;40915;50.826;4.356;2023-12-14T08:35:42;7.40;99.90
25628;DHT22;40915;50.826;4.356;2023-12-14T08:38:07;7.30;99.90
25628;DHT22;40915;50.826;4.356;2023-12-14T08:40:33;7.30;99.90
25628;DHT22;40915;50.826;4.356;2023-12-14T08:42:59;7.40;99.90
25628;DHT22;40915;50.826;4.356;2023-12-14T08:45:25;7.40;99.90
25628;DHT22;40915;50.826;4.356;2023-12-14T08:47:50;7.30;99.90
25628;DHT22;40915;50.826;4.356;2023-12-14T08:50:16;7.30;99.90
25628;DHT22;40915;50.826;4.356;2023-12-14T08:52:42;7.30;99.90
25628;DHT22;40915;50.826;4.356;2023-12-14T08:55:08;7.40;99.90
25628;DHT22;40915;50.826;4.356;2023-12-14T08:57:34;7.40;99.90
25628;DHT22;40915;50.826;4.356;2023-12-14T09:00:00;7.40;99.90
25628;DHT22;40915;50.826;4.356;2023-12-14T09:02:26;7.40;99.90
25628;DHT22;40915;50.826;4.356;2023-12-14T09:04:52;7.60;99.90
25628;DHT22;40915;50.826;4.356;2023-12-14T09:07:18;7.70;99.90
25628;DHT22;40915;50.826;4.356;2023-12-14T09:09:43;7.80;99.90
25628;DHT22;40915;50.826;4.356;2023-12-14T09:12:09;7.80;99.90
25628;DHT22;40915;50.826;4.356;2023-12-14T09:14:35;7.90;99.90
25628;DHT22;40915;50.826;4.356;2023-12-14T09:17:01;8.00;99.90
25628;DHT22;40915;50.826;4.356;2023-12-14T09:19:29;8.10;99.90
25628;DHT22;40915;50.826;4.356;2023-12-14T09:21:54;8.10;99.90
25628;DHT22;40915;50.826;4.356;2023-12-14T09:24:22;8.10;99.90
25628;DHT22;40915;50.826;4.356;2023-12-14T09:26:47;8.10;99.90
25628;DHT22;40915;50.826;4.356;2023-12-14T09:29:13;8.10;99.90
25628;DHT22;40915;50.826;4.356;2023-12-14T09:31:42;8.10;99.90
25628;DHT22;40915;50.826;4.356;2023-12-14T09:34:08;8.10;99.90
25628;DHT22;40915;50.826;4.356;2023-12-14T09:36:35;8.10;99.90
25628;DHT22;40915;50.826;4.356;2023-12-14T09:39:00;8.20;99.90
25628;DHT22;40915;50.826;4.356;2023-12-14T09:41:26;8.10;99.90
25628;DHT22;40915;50.826;4.356;2023-12-14T09:43:52;8.10;99.90
25628;DHT22;40915;50.826;4.356;2023-12-14T09:46:18;8.00;99.90
25628;DHT22;40915;50.826;4.356;2023-12-14T09:48:46;8.00;99.90
25628;DHT22;40915;50.826;4.356;2023-12-14T09:51:16;7.90;99.90
25628;DHT22;40915;50.826;4.356;2023-12-14T09:53:41;7.90;99.90
25628;DHT22;40915;50.826;4.356;2023-12-14T09:56:07;7.90;99.90
25628;DHT22;40915;50.826;4.356;2023-12-14T09:58:33;7.90;99.90
25628;DHT22;40915;50.826;4.356;2023-12-14T10:00:59;7.90;99.90
25628;DHT22;40915;50.826;4.356;2023-12-14T10:03:28;7.90;99.90
25628;DHT22;40915;50.826;4.356;2023-12-14T10:05:55;7.90;99.90
25628;DHT22;40915;50.826;4.356;2023-12-14T10:08:21;8.00;99.90
25628;DHT22;40915;50.826;4.356;2023-12-14T10:10:49;8.00;99.90
25628;DHT22;40915;50.826;4.356;2023-12-14T10:13:16;8.00;99.90
25628;DHT22;40915;50.826;4.356;2023-12-14T10:15:48;8.00;99.90
25628;DHT22;40915;50.826;4.356;2023-12-14T10:18:23;8.00;99.90
25628;DHT22;40915;50.826;4.356;2023-12-14T10:20:52;8.00;99.90
25628;DHT22;40915;50.826;4.356;2023-12-14T10:23:19;8.00;99.90
25628;DHT22;40915;50.826;4.356;2023-12-14T10:25:45;8.00;99.90
25628;DHT22;40915;50.826;4.356;2023-12-14T10:28:14;8.10;99.90
25628;DHT22;40915;50.826;4.356;2023-12-14T10:30:41;8.10;99.90
25628;DHT22;40915;50.826;4.356;2023-12-14T10:33:07;8.10;99.90
25628;DHT22;40915;50.826;4.356;2023-12-14T10:35:32;8.10;99.90
25628;DHT22;40915;50.826;4.356;2023-12-14T10:38:03;8.10;99.90
25628;DHT22;40915;50.826;4.356;2023-12-14T10:40:31;8.20;99.90
25628;DHT22;40915;50.826;4.356;2023-12-14T10:42:59;8.20;99.90
25628;DHT22;40915;50.826;4.356;2023-12-14T10:45:31;8.10;99.90
25628;DHT22;40915;50.826;4.356;2023-12-14T10:47:59;8.10;99.90
25628;DHT22;40915;50.826;4.356;2023-12-14T10:50:31;8.20;99.90
25628;DHT22;40915;50.826;4.356;2023-12-14T10:52:57;8.20;99.90
25628;DHT22;40915;50.826;4.356;2023-12-14T10:55:42;8.20;99.90
25628;DHT22;40915;50.826;4.356;2023-12-14T10:58:09;8.30;99.90
25628;DHT22;40915;50.826;4.356;2023-12-14T11:00:36;8.30;99.90
25628;DHT22;40915;50.826;4.356;2023-12-14T11:03:04;8.40;99.90
25628;DHT22;40915;50.826;4.356;2023-12-14T11:05:34;8.40;99.90
25628;DHT22;40915;50.826;4.356;2023-12-14T11:08:01;8.40;99.90
25628;DHT22;40915;50.826;4.356;2023-12-14T11:10:39;8.40;99.90
25628;DHT22;40915;50.826;4.356;2023-12-14T11:13:10;8.40;99.90
25628;DHT22;40915;50.826;4.356;2023-12-14T11:15:37;8.50;99.90
25628;DHT22;40915;50.826;4.356;2023-12-14T11:23:17;8.50;99.90
25628;DHT22;40915;50.826;4.356;2023-12-14T11:25:48;8.40;99.90
25628;DHT22;40915;50.826;4.356;2023-12-14T11:28:14;8.40;99.90
25628;DHT22;40915;50.826;4.356;2023-12-14T11:30:42;8.40;99.90
25628;DHT22;40915;50.826;4.356;2023-12-14T11:33:08;8.40;99.90
25628;DHT22;40915;50.826;4.356;2023-12-14T11:35:35;8.50;99.90
25628;DHT22;40915;50.826;4.356;2023-12-14T11:38:01;8.50;99.90
25628;DHT22;40915;50.826;4.356;2023-12-14T11:40:30;8.50;99.90
25628;DHT22;40915;50.826;4.356;2023-12-14T11:42:59;8.50;99.90
25628;DHT22;40915;50.826;4.356;2023-12-14T11:45:26;8.60;99.90
25628;DHT22;40915;50.826;4.356;2023-12-14T11:47:52;8.60;99.90
25628;DHT22;40915;50.826;4.356;2023-12-14T11:50:18;8.60;99.90
25628;DHT22;40915;50.826;4.356;2023-12-14T11:52:44;8.60;99.90
25628;DHT22;40915;50.826;4.356;2023-12-14T11:55:14;8.60;99.90
25628;DHT22;40915;50.826;4.356;2023-12-14T11:57:45;8.60;99.90
25628;DHT22;40915;50.826;4.356;2023-12-14T12:00:11;8.50;99.90
25628;DHT22;40915;50.826;4.356;2023-12-14T12:02:37;8.60;99.90
25628;DHT22;40915;50.826;4.356;2023-12-14T12:05:03;8.60;99.90
25628;DHT22;40915;50.826;4.356;2023-12-14T12:07:29;8.50;99.90
25628;DHT22;40915;50.826;4.356;2023-12-14T12:09:54;8.50;99.90
25628;DHT22;40915;50.826;4.356;2023-12-14T12:12:21;8.50;99.90
25628;DHT22;40915;50.826;4.356;2023-12-14T12:14:46;8.50;99.90
25628;DHT22;40915;50.826;4.356;2023-12-14T12:17:15;8.50;99.90
25628;DHT22;40915;50.826;4.356;2023-12-14T12:19:41;8.40;99.90
25628;DHT22;40915;50.826;4.356;2023-12-14T12:22:08;8.40;99.90
25628;DHT22;40915;50.826;4.356;2023-12-14T12:24:34;8.40;99.90
25628;DHT22;40915;50.826;4.356;2023-12-14T12:27:00;8.30;99.90
25628;DHT22;40915;50.826;4.356;2023-12-14T12:29:25;8.30;99.90
25628;DHT22;40915;50.826;4.356;2023-12-14T12:31:51;8.30;99.90
25628;DHT22;40915;50.826;4.356;2023-12-14T12:34:17;8.40;99.90
25628;DHT22;40915;50.826;4.356;2023-12-14T12:36:43;8.40;99.90
25628;DHT22;40915;50.826;4.356;2023-12-14T12:39:09;8.40;99.90
25628;DHT22;40915;50.826;4.356;2023-12-14T12:41:35;8.40;99.90
25628;DHT22;40915;50.826;4.356;2023-12-14T12:44:05;8.40;99.90
25628;DHT22;40915;50.826;4.356;2023-12-14T12:46:38;8.40;99.90
25628;DHT22;40915;50.826;4.356;2023-12-14T12:49:05;8.40;99.90
25628;DHT22;40915;50.826;4.356;2023-12-14T12:51:31;8.40;99.90
25628;DHT22;40915;50.826;4.356;2023-12-14T12:53:58;8.40;99.90
25628;DHT22;40915;50.826;4.356;2023-12-14T12:56:26;8.50;99.90
25628;DHT22;40915;50.826;4.356;2023-12-14T12:58:51;8.50;99.90
25628;DHT22;40915;50.826;4.356;2023-12-14T13:01:20;8.40;99.90
25628;DHT22;40915;50.826;4.356;2023-12-14T13:03:52;8.40;99.90
25628;DHT22;40915;50.826;4.356;2023-12-14T13:06:18;8.50;99.90
25628;DHT22;40915;50.826;4.356;2023-12-14T13:08:43;8.50;99.90
25628;DHT22;40915;50.826;4.356;2023-12-14T13:11:09;8.40;99.90
25628;DHT22;40915;50.826;4.356;2023-12-14T13:13:35;8.40;99.90
25628;DHT22;40915;50.826;4.356;2023-12-14T13:16:00;8.30;99.90
25628;DHT22;40915;50.826;4.356;2023-12-14T13:18:26;8.30;99.90
25628;DHT22;40915;50.826;4.356;2023-12-14T13:20:52;8.30;99.90
25628;DHT22;40915;50.826;4.356;2023-12-14T13:23:17;8.30;99.90
25628;DHT22;40915;50.826;4.356;2023-12-14T13:25:43;8.30;99.90
25628;DHT22;40915;50.826;4.356;2023-12-14T13:28:10;8.30;99.90
25628;DHT22;40915;50.826;4.356;2023-12-14T13:30:36;8.30;99.90
25628;DHT22;40915;50.826;4.356;2023-12-14T13:33:02;8.30;99.90
25628;DHT22;40915;50.826;4.356;2023-12-14T13:35:29;8.40;99.90
25628;DHT22;40915;50.826;4.356;2023-12-14T13:37:55;8.40;99.90
25628;DHT22;40915;50.826;4.356;2023-12-14T13:40:21;8.40;99.90
25628;DHT22;40915;50.826;4.356;2023-12-14T13:42:46;8.40;99.90
25628;DHT22;40915;50.826;4.356;2023-12-14T13:45:12;8.40;99.90
25628;DHT22;40915;50.826;4.356;2023-12-14T13:47:38;8.40;99.90
25628;DHT22;40915;50.826;4.356;2023-12-14T13:50:04;8.50;99.90
25628;DHT22;40915;50.826;4.356;2023-12-14T13:52:30;8.40;99.90
25628;DHT22;40915;50.826;4.356;2023-12-14T13:54:56;8.40;99.90
25628;DHT22;40915;50.826;4.356;2023-12-14T13:57:22;8.50;99.90
25628;DHT22;40915;50.826;4.356;2023-12-14T13:59:48;8.40;99.90
25628;DHT22;40915;50.826;4.356;2023-12-14T14:02:13;8.50;99.90
25628;DHT22;40915;50.826;4.356;2023-12-14T14:04:39;8.50;99.90
25628;DHT22;40915;50.826;4.356;2023-12-14T14:07:05;8.50;99.90
25628;DHT22;40915;50.826;4.356;2023-12-14T14:09:31;8.50;99.90
25628;DHT22;40915;50.826;4.356;2023-12-14T14:11:58;8.40;99.90
25628;DHT22;40915;50.826;4.356;2023-12-14T14:14:24;8.40;99.90
25628;DHT22;40915;50.826;4.356;2023-12-14T14:16:50;8.40;99.90
25628;DHT22;40915;50.826;4.356;2023-12-14T14:19:15;8.40;99.90
25628;DHT22;40915;50.826;4.356;2023-12-14T14:21:41;8.50;99.90
25628;DHT22;40915;50.826;4.356;2023-12-14T14:24:07;8.50;99.90
25628;DHT22;40915;50.826;4.356;2023-12-14T14:26:33;8.50;99.90
25628;DHT22;40915;50.826;4.356;2023-12-14T14:28:58;8.50;99.90
25628;DHT22;40915;50.826;4.356;2023-12-14T14:31:27;8.50;99.90
25628;DHT22;40915;50.826;4.356;2023-12-14T14:33:57;8.50;99.90
25628;DHT22;40915;50.826;4.356;2023-12-14T14:36:23;8.50;99.90
25628;DHT22;40915;50.826;4.356;2023-12-14T14:38:49;8.50;99.90
25628;DHT22;40915;50.826;4.356;2023-12-14T14:41:15;8.50;99.90
25628;DHT22;40915;50.826;4.356;2023-12-14T14:43:41;8.50;99.90
25628;DHT22;40915;50.826;4.356;2023-12-14T14:46:08;8.50;99.90
25628;DHT22;40915;50.826;4.356;2023-12-14T14:48:33;8.40;99.90
25628;DHT22;40915;50.826;4.356;2023-12-14T14:50:59;8.40;99.90
25628;DHT22;40915;50.826;4.356;2023-12-14T14:53:25;8.40;99.90
25628;DHT22;40915;50.826;4.356;2023-12-14T14:55:51;8.40;99.90
25628;DHT22;40915;50.826;4.356;2023-12-14T14:58:21;8.40;99.90
25628;DHT22;40915;50.826;4.356;2023-12-14T15:00:47;8.40;99.90
25628;DHT22;40915;50.826;4.356;2023-12-14T15:03:13;8.40;99.90
25628;DHT22;40915;50.826;4.356;2023-12-14T15:05:39;8.50;99.90
25628;DHT22;40915;50.826;4.356;2023-12-14T15:08:06;8.40;99.90
25628;DHT22;40915;50.826;4.356;2023-12-14T15:10:32;8.40;99.90
25628;DHT22;40915;50.826;4.356;2023-12-14T15:12:58;8.40;99.90
25628;DHT22;40915;50.826;4.356;2023-12-14T15:15:24;8.40;99.90
25628;DHT22;40915;50.826;4.356;2023-12-14T15:17:49;8.40;99.90
25628;DHT22;40915;50.826;4.356;2023-12-14T15:20:15;8.40;99.90
25628;DHT22;40915;50.826;4.356;2023-12-14T15:22:41;8.40;99.90
25628;DHT22;40915;50.826;4.356;2023-12-14T15:25:07;8.40;99.90
25628;DHT22;40915;50.826;4.356;2023-12-14T15:27:33;8.40;99.90
25628;DHT22;40915;50.826;4.356;2023-12-14T15:29:59;8.40;99.90
25628;DHT22;40915;50.826;4.356;2023-12-14T15:32:25;8.40;99.90
25628;DHT22;40915;50.826;4.356;2023-12-14T15:34:51;8.40;99.90
25628;DHT22;40915;50.826;4.356;2023-12-14T15:37:17;8.40;99.90
25628;DHT22;40915;50.826;4.356;2023-12-14T15:39:43;8.40;99.90
25628;DHT22;40915;50.826;4.356;2023-12-14T15:42:14;8.30;99.90
25628;DHT22;40915;50.826;4.356;2023-12-14T15:44:41;8.30;99.90
25628;DHT22;40915;50.826;4.356;2023-12-14T15:47:07;8.30;99.90